Latest Weather Observations for Outer Harbor (Black Pole)

IDS60901

Issued at 6:21 am CST Tuesday 7 July 2020 (issued every 10 minutes, with the page automatically refreshed every 10 minutes)

About weather observations | Map of Adelaide area stations | Latest observations for Adelaide area | Other Formats
Station Details ID: 023052 Name: BLACK POLE Lat: -34.73 Lon: 138.47 Height: 6.27 m
Data from the previous 72 hours. | See also: Recent months for locations in South Australia
Date/Time
CST
Temp
°C
App
Temp
°C
Dew
Point
°C
Rel
Hum
%
Delta-T
°C
Wind Press
QNH
hPa
Press
MSL
hPa
Rain since
9am
mm
Dir  Spd
km/h
Gust
km/h
Spd
kts
Gust
kts
07/06:00am - - - - - ENE 17 22 9 12 - - -
07/05:30am - - - - - E 17 20 9 11 - - -
07/05:00am - - - - - E 19 24 10 13 - - -
07/04:30am - - - - - E 15 22 8 12 - - -
07/04:00am - - - - - E 17 20 9 11 - - -
07/03:30am - - - - - ENE 13 19 7 10 - - -
07/03:00am - - - - - E 11 13 6 7 - - -
07/02:30am - - - - - E 13 15 7 8 - - -
07/02:00am - - - - - E 13 17 7 9 - - -
07/01:30am - - - - - E 17 20 9 11 - - -
07/01:00am - - - - - E 17 20 9 11 - - -
07/12:30am - - - - - ENE 19 24 10 13 - - -
07/12:00am - - - - - E 13 15 7 8 - - -
 
Date/Time
CST
Temp
°C
App
Temp
°C
Dew
Point
°C
Rel
Hum
%
Delta-T
°C
Wind Press
QNH
hPa
Press
MSL
hPa
Rain since
9am
mm
Dir  Spd
km/h
Gust
km/h
Spd
kts
Gust
kts
06/11:30pm - - - - - ESE 13 17 7 9 - - -
06/11:00pm - - - - - ESE 13 19 7 10 - - -
06/10:30pm - - - - - ESE 11 15 6 8 - - -
06/10:00pm - - - - - ESE 17 22 9 12 - - -
06/09:30pm - - - - - E 17 24 9 13 - - -
06/09:00pm - - - - - ESE 19 24 10 13 - - -
06/08:30pm - - - - - E 17 22 9 12 - - -
06/08:00pm - - - - - E 19 24 10 13 - - -
06/07:30pm - - - - - ESE 17 22 9 12 - - -
06/07:00pm - - - - - ESE 17 26 9 14 - - -
06/06:30pm - - - - - ESE 15 20 8 11 - - -
06/06:00pm - - - - - E 17 20 9 11 - - -
06/05:30pm - - - - - E 13 17 7 9 - - -
06/05:00pm - - - - - ESE 15 17 8 9 - - -
06/04:30pm - - - - - ESE 9 11 5 6 - - -
06/04:00pm - - - - - ESE 15 22 8 12 - - -
06/03:30pm - - - - - E 19 20 10 11 - - -
06/03:00pm - - - - - SSW 6 11 3 6 - - -
06/02:30pm - - - - - SSW 9 9 5 5 - - -
06/02:00pm - - - - - SW 9 13 5 7 - - -
06/01:30pm - - - - - SW 13 15 7 8 - - -
06/01:00pm - - - - - WSW 11 15 6 8 - - -
06/12:30pm - - - - - WSW 7 9 4 5 - - -
06/12:00pm - - - - - W 7 9 4 5 - - -
06/11:30am - - - - - WNW 6 7 3 4 - - -
06/11:00am - - - - - WNW 2 4 1 2 - - -
06/10:30am - - - - - N 6 7 3 4 - - -
06/10:00am - - - - - NW 4 7 2 4 - - -
06/09:30am - - - - - N 7 9 4 5 - - -
06/09:00am - - - - - N 6 7 3 4 - - -
06/08:30am - - - - - N 4 6 2 3 - - -
06/08:00am - - - - - NW 6 6 3 3 - - -
06/07:30am - - - - - NNW 4 6 2 3 - - -
06/07:00am - - - - - NE 6 9 3 5 - - -
06/06:30am - - - - - ENE 7 11 4 6 - - -
06/06:00am - - - - - E 9 13 5 7 - - -
06/05:30am - - - - - E 9 13 5 7 - - -
06/05:00am - - - - - E 7 9 4 5 - - -
06/04:30am - - - - - ENE 9 11 5 6 - - -
06/04:00am - - - - - ESE 4 7 2 4 - - -
06/03:30am - - - - - SE 6 9 3 5 - - -
06/03:00am - - - - - SE 9 11 5 6 - - -
06/02:30am - - - - - SE 9 13 5 7 - - -
06/02:00am - - - - - SE 6 7 3 4 - - -
06/01:30am - - - - - ESE 7 11 4 6 - - -
06/01:00am - - - - - E 6 7 3 4 - - -
06/12:30am - - - - - ENE 6 7 3 4 - - -
06/12:00am - - - - - E 6 7 3 4 - - -
 
Date/Time
CST
Temp
°C
App
Temp
°C
Dew
Point
°C
Rel
Hum
%
Delta-T
°C
Wind Press
QNH
hPa
Press
MSL
hPa
Rain since
9am
mm
Dir  Spd
km/h
Gust
km/h
Spd
kts
Gust
kts
05/11:30pm - - - - - E 7 9 4 5 - - -
05/11:00pm - - - - - ESE 9 13 5 7 - - -
05/10:30pm - - - - - SSE 20 24 11 13 - - -
05/10:00pm - - - - - SSE 19 24 10 13 - - -
05/09:30pm - - - - - SSE 17 22 9 12 - - -
05/09:00pm - - - - - S 17 20 9 11 - - -
05/08:30pm - - - - - SSE 17 20 9 11 - - -
05/08:00pm - - - - - SE 17 20 9 11 - - -
05/07:30pm - - - - - SE 20 24 11 13 - - -
05/07:00pm - - - - - SSE 20 24 11 13 - - -
05/06:30pm - - - - - SSE 20 24 11 13 - - -
05/06:00pm - - - - - SSW 20 24 11 13 - - -
05/05:30pm - - - - - SW 17 19 9 10 - - -
05/05:00pm - - - - - SW 17 20 9 11 - - -
05/04:30pm - - - - - SW 17 20 9 11 - - -
05/04:00pm - - - - - SW 20 24 11 13 - - -
05/03:30pm - - - - - SW 15 19 8 10 - - -
05/03:00pm - - - - - WSW 13 17 7 9 - - -
05/02:30pm - - - - - WSW 15 17 8 9 - - -
05/02:00pm - - - - - WSW 17 20 9 11 - - -
05/01:30pm - - - - - WSW 17 19 9 10 - - -
05/01:00pm - - - - - WSW 13 15 7 8 - - -
05/12:30pm - - - - - WSW 13 15 7 8 - - -
05/12:00pm - - - - - SW 11 13 6 7 - - -
05/11:30am - - - - - S 24 30 13 16 - - -
05/11:00am - - - - - S 24 32 13 17 - - -
05/10:30am - - - - - SW 13 15 7 8 - - -
05/10:00am - - - - - SW 15 19 8 10 - - -
05/09:30am - - - - - SW 13 15 7 8 - - -
05/09:00am - - - - - SW 9 11 5 6 - - -
05/08:30am - - - - - SW 13 17 7 9 - - -
05/08:00am - - - - - SSW 20 26 11 14 - - -
05/07:30am - - - - - SSW 13 17 7 9 - - -
05/07:00am - - - - - SSW 15 22 8 12 - - -
05/06:30am - - - - - SSW 9 11 5 6 - - -
05/06:00am - - - - - SSW 9 11 5 6 - - -
05/05:30am - - - - - SSW 15 19 8 10 - - -
05/05:00am - - - - - SW 11 17 6 9 - - -
05/04:30am - - - - - SW 20 24 11 13 - - -
05/04:00am - - - - - SSW 13 19 7 10 - - -
05/03:30am - - - - - SSW 15 20 8 11 - - -
05/03:00am - - - - - SSW 17 24 9 13 - - -
05/02:30am - - - - - S 4 7 2 4 - - -
05/02:00am - - - - - SSE 7 9 4 5 - - -
05/01:30am - - - - - S 9 11 5 6 - - -
05/01:00am - - - - - S 15 19 8 10 - - -
05/12:30am - - - - - SSW 17 22 9 12 - - -
05/12:00am - - - - - S 7 9 4 5 - - -
 
Date/Time
CST
Temp
°C
App
Temp
°C
Dew
Point
°C
Rel
Hum
%
Delta-T
°C
Wind Press
QNH
hPa
Press
MSL
hPa
Rain since
9am
mm
Dir  Spd
km/h
Gust
km/h
Spd
kts
Gust
kts
04/11:30pm - - - - - S 4 6 2 3 - - -
04/11:00pm - - - - - S 4 6 2 3 - - -
04/10:30pm - - - - - S 9 13 5 7 - - -
04/10:00pm - - - - - SSW 13 20 7 11 - - -
04/09:30pm - - - - - SSW 9 13 5 7 - - -
04/09:00pm - - - - - SW 9 11 5 6 - - -
04/08:30pm - - - - - SW 11 13 6 7 - - -
04/08:00pm - - - - - SW 13 15 7 8 - - -
04/07:30pm - - - - - SW 15 17 8 9 - - -
04/07:00pm - - - - - SW 13 15 7 8 - - -
04/06:30pm - - - - - SW 11 13 6 7 - - -
04/06:00pm - - - - - WSW 13 15 7 8 - - -
04/05:30pm - - - - - WSW 11 13 6 7 - - -
04/05:00pm - - - - - WSW 11 13 6 7 - - -
04/04:30pm - - - - - WSW 11 13 6 7 - - -
04/04:00pm - - - - - WSW 11 13 6 7 - - -
04/03:30pm - - - - - SW 11 13 6 7 - - -
04/03:00pm - - - - - SW 11 13 6 7 - - -
04/02:30pm - - - - - SW 15 17 8 9 - - -
04/02:00pm - - - - - WSW 15 17 8 9 - - -
04/01:30pm - - - - - SW 15 17 8 9 - - -
04/01:00pm - - - - - W 15 17 8 9 - - -
04/12:30pm - - - - - WSW 15 17 8 9 - - -
04/12:00pm - - - - - WSW 17 20 9 11 - - -
04/11:30am - - - - - W 19 22 10 12 - - -
04/11:00am - - - - - W 19 20 10 11 - - -
04/10:30am - - - - - W 17 19 9 10 - - -
04/10:00am - - - - - W 15 19 8 10 - - -
04/09:30am - - - - - W 15 19 8 10 - - -
04/09:00am - - - - - W 19 22 10 12 - - -
04/08:30am - - - - - WSW 19 20 10 11 - - -
04/08:00am - - - - - SW 19 28 10 15 - - -
04/07:30am - - - - - SW 24 30 13 16 - - -
04/07:00am - - - - - SW 20 24 11 13 - - -
04/06:30am - - - - - SW 22 26 12 14 - - -

Latest Capital City Observations: Canberra | Sydney | Melbourne | Brisbane | Adelaide | Perth | Hobart | Darwin

Other formats

Comma delimited format used in spreadsheet applications
http://www.bom.gov.au/fwo/IDS60901/IDS60901.95675.axf

JavaScript Object Notation format (JSON) in row-major order
http://www.bom.gov.au/fwo/IDS60901/IDS60901.95675.json

Data quality

Most of these data are generated automatically and are frequently updated. Quality checks on data are not normally performed. It is possible for incorrect values to appear. Refer to information at About Latest Weather Observations and please check the disclaimer before using these data.